Time;durP1;ratioP1;P1;durP2;ratioP2;P2;SDS_P1;SDS_P2;PMS_P1;PMS_P2;Temp;Humidity;BMP_temperature;BMP_pressure;BME280_temperature;BME280_humidity;BME280_pressure;Samples;Min_cycle;Max_cycle;Signal;HPM_P1;HPM_P2
2022/09/14 00:01:39;;;;;;;6.57;2.00;;;;;;;;;;5040681;28;20036;-61
2022/09/14 00:04:10;;;;;;;7.60;2.13;;;;;;;;;;5038420;28;20040;-62
2022/09/14 00:06:36;;;;;;;5.50;1.90;;;;;;;;;;5038380;28;22026;-62
2022/09/14 00:09:05;;;;;;;5.22;1.67;;;;;;;;;;5043373;28;20048;-62
2022/09/14 00:11:32;;;;;;;5.55;2.72;;;;;;;;;;5045020;28;20597;-61
2022/09/14 00:14:00;;;;;;;4.85;1.95;;;;;;;;;;5044070;28;20037;-61
2022/09/14 00:16:27;;;;;;;4.82;1.70;;;;;;;;;;5041326;28;20758;-61
2022/09/14 00:18:54;;;;;;;4.43;2.00;;;;;;;;;;5046822;28;20041;-61
2022/09/14 00:21:21;;;;;;;7.30;1.90;;;;;;;;;;5044831;28;20299;-61
2022/09/14 00:23:47;;;;;;;8.60;1.75;;;;;;;;;;5045388;28;20407;-61
2022/09/14 00:26:14;;;;;;;4.20;1.90;;;;;;;;;;5046948;28;20044;-61
2022/09/14 00:28:43;;;;;;;3.97;1.98;;;;;;;;;;5047195;28;20041;-61
2022/09/14 00:31:09;;;;;;;3.55;1.67;;;;;;;;;;5045849;28;20056;-61
2022/09/14 00:33:37;;;;;;;5.22;2.10;;;;;;;;;;5046844;28;20082;-61
2022/09/14 00:36:10;;;;;;;4.90;1.60;;;;;;;;;;5047825;28;20059;-61
2022/09/14 00:38:37;;;;;;;7.68;2.17;;;;;;;;;;5046964;28;20040;-62
2022/09/14 00:41:04;;;;;;;6.72;1.83;;;;;;;;;;5048208;28;20060;-61
2022/09/14 00:43:30;;;;;;;5.68;1.83;;;;;;;;;;5048186;28;20053;-61
2022/09/14 00:45:59;;;;;;;4.45;1.85;;;;;;;;;;5047194;28;20045;-61
2022/09/14 00:48:25;;;;;;;5.90;1.88;;;;;;;;;;5047833;28;20509;-61
2022/09/14 00:50:53;;;;;;;4.15;2.17;;;;;;;;;;5047252;28;20474;-61
2022/09/14 00:53:19;;;;;;;3.85;1.98;;;;;;;;;;5048352;28;20116;-61
2022/09/14 00:55:45;;;;;;;4.20;1.85;;;;;;;;;;5047227;28;20037;-61
2022/09/14 00:58:11;;;;;;;3.03;1.80;;;;;;;;;;5047408;28;20119;-62
2022/09/14 01:00:37;;;;;;;2.88;1.90;;;;;;;;;;5046727;28;20037;-61
2022/09/14 01:03:04;;;;;;;4.45;2.13;;;;;;;;;;5047679;28;20045;-62
2022/09/14 01:05:37;;;;;;;3.95;1.90;;;;;;;;;;5048278;28;20043;-61
2022/09/14 01:08:20;;;;;;;3.90;1.80;;;;;;;;;;5047979;28;20045;-61
2022/09/14 01:11:07;;;;;;;5.55;2.00;;;;;;;;;;5046701;28;20057;-61
2022/09/14 01:13:40;;;;;;;5.90;1.77;;;;;;;;;;5046314;28;20482;-62
2022/09/14 01:16:11;;;;;;;6.57;2.13;;;;;;;;;;5047086;28;20052;-61
2022/09/14 01:18:42;;;;;;;5.97;2.20;;;;;;;;;;5043909;28;20041;-61
2022/09/14 01:21:14;;;;;;;6.15;2.13;;;;;;;;;;5042985;28;20033;-61
2022/09/14 01:23:48;;;;;;;4.57;1.80;;;;;;;;;;5040290;28;20044;-61
2022/09/14 01:26:23;;;;;;;5.15;2.13;;;;;;;;;;5044402;28;20041;-61
2022/09/14 01:28:56;;;;;;;9.93;2.30;;;;;;;;;;5043786;28;20498;-61
2022/09/14 01:31:37;;;;;;;6.43;2.15;;;;;;;;;;5044456;28;20330;-61
2022/09/14 01:34:12;;;;;;;4.63;2.33;;;;;;;;;;5044337;28;20036;-61
2022/09/14 01:36:40;;;;;;;5.05;2.20;;;;;;;;;;5043920;28;20037;-61
2022/09/14 01:39:07;;;;;;;3.17;1.90;;;;;;;;;;5043994;28;20564;-62
2022/09/14 01:41:33;;;;;;;6.05;2.38;;;;;;;;;;5044029;28;20041;-62
2022/09/14 01:44:09;;;;;;;8.60;2.33;;;;;;;;;;5043733;28;20198;-61
2022/09/14 01:46:44;;;;;;;3.15;1.55;;;;;;;;;;5043102;28;20033;-61
2022/09/14 01:49:14;;;;;;;6.18;1.88;;;;;;;;;;5042609;28;20037;-61
2022/09/14 01:51:45;;;;;;;8.48;1.80;;;;;;;;;;5043428;28;20494;-61
2022/09/14 01:54:22;;;;;;;7.65;2.17;;;;;;;;;;5044231;28;20041;-61
2022/09/14 01:56:51;;;;;;;10.97;2.00;;;;;;;;;;5043637;28;20087;-61
2022/09/14 01:59:17;;;;;;;;;;;;;;;;;;5043044;28;20056;-61
2022/09/14 02:01:47;;;;;;;3.13;1.60;;;;;;;;;;5043708;28;19942;-61
2022/09/14 02:04:14;;;;;;;5.38;1.77;;;;;;;;;;5039921;28;20156;-61
2022/09/14 02:06:44;;;;;;;4.27;2.00;;;;;;;;;;5043530;28;20475;-61
2022/09/14 02:09:11;;;;;;;5.28;2.03;;;;;;;;;;5042681;28;20637;-61
2022/09/14 02:11:38;;;;;;;5.75;2.55;;;;;;;;;;5042006;28;20048;-61
2022/09/14 02:14:04;;;;;;;4.72;1.85;;;;;;;;;;5041691;28;20045;-61
2022/09/14 02:16:31;;;;;;;2.35;1.80;;;;;;;;;;5043455;28;20051;-61
2022/09/14 02:19:00;;;;;;;8.73;2.28;;;;;;;;;;5043841;28;20135;-61
2022/09/14 02:21:27;;;;;;;6.38;2.13;;;;;;;;;;5043713;28;20049;-61
2022/09/14 02:23:54;;;;;;;5.73;1.77;;;;;;;;;;5042956;28;20037;-61
2022/09/14 02:26:21;;;;;;;4.03;1.65;;;;;;;;;;5043611;28;20084;-61
2022/09/14 02:28:47;;;;;;;5.75;1.77;;;;;;;;;;5042264;28;20523;-61
2022/09/14 02:31:23;;;;;;;4.15;1.45;;;;;;;;;;5043019;28;20041;-61
2022/09/14 02:33:56;;;;;;;5.38;2.08;;;;;;;;;;5041933;28;20595;-61
2022/09/14 02:36:24;;;;;;;5.10;1.63;;;;;;;;;;5042839;28;20072;-61
2022/09/14 02:39:13;;;;;;;6.63;1.85;;;;;;;;;;5043057;28;20051;-61
2022/09/14 02:41:45;;;;;;;6.40;1.83;;;;;;;;;;5042624;28;20049;-61
2022/09/14 02:44:27;;;;;;;5.93;1.67;;;;;;;;;;5042100;28;20608;-61
2022/09/14 02:47:03;;;;;;;7.53;1.92;;;;;;;;;;5042798;28;20037;-61
2022/09/14 02:49:35;;;;;;;4.55;1.88;;;;;;;;;;5042687;28;20074;-61
2022/09/14 02:52:17;;;;;;;6.32;1.85;;;;;;;;;;5043153;28;20037;-61
2022/09/14 02:54:52;;;;;;;4.80;1.85;;;;;;;;;;5042757;28;20107;-61
2022/09/14 02:57:18;;;;;;;4.50;1.58;;;;;;;;;;5039915;28;20078;-61
2022/09/14 02:59:44;;;;;;;4.72;1.30;;;;;;;;;;5041996;28;20051;-61
2022/09/14 03:02:10;;;;;;;4.68;1.60;;;;;;;;;;5042058;28;20479;-61
2022/09/14 03:04:36;;;;;;;5.70;2.20;;;;;;;;;;5042296;28;20045;-61
2022/09/14 03:07:02;;;;;;;4.60;1.80;;;;;;;;;;5042601;28;20040;-62
2022/09/14 03:09:29;;;;;;;7.25;1.50;;;;;;;;;;5042557;28;20057;-61
2022/09/14 03:11:55;;;;;;;3.72;1.75;;;;;;;;;;5041994;28;20047;-61
2022/09/14 03:14:21;;;;;;;5.13;1.98;;;;;;;;;;5041463;28;20072;-61
2022/09/14 03:16:47;;;;;;;8.85;1.85;;;;;;;;;;5041968;28;20124;-61
2022/09/14 03:19:13;;;;;;;4.88;1.65;;;;;;;;;;5042848;28;20541;-61
2022/09/14 03:21:40;;;;;;;6.05;1.75;;;;;;;;;;5041926;28;20057;-61
2022/09/14 03:24:06;;;;;;;7.72;2.45;;;;;;;;;;5042211;28;20037;-61
2022/09/14 03:26:35;;;;;;;6.35;2.22;;;;;;;;;;5042101;28;20044;-62
2022/09/14 03:29:02;;;;;;;5.90;1.70;;;;;;;;;;5042254;28;20116;-61
2022/09/14 03:31:28;;;;;;;7.28;2.45;;;;;;;;;;5041589;28;20044;-61
2022/09/14 03:33:55;;;;;;;5.95;1.77;;;;;;;;;;5041961;28;20135;-61
2022/09/14 03:36:22;;;;;;;4.45;2.05;;;;;;;;;;5041986;28;20045;-61
2022/09/14 03:38:50;;;;;;;5.45;2.33;;;;;;;;;;5038114;28;20672;-61
2022/09/14 03:41:17;;;;;;;5.05;1.65;;;;;;;;;;5042255;28;20045;-61
2022/09/14 03:43:43;;;;;;;3.70;1.40;;;;;;;;;;5038886;28;20053;-61
2022/09/14 03:46:11;;;;;;;4.55;1.90;;;;;;;;;;5041822;28;20079;-61
2022/09/14 03:48:37;;;;;;;7.57;1.90;;;;;;;;;;5041835;28;20642;-61
2022/09/14 03:51:05;;;;;;;4.95;1.63;;;;;;;;;;5041062;28;20371;-62
2022/09/14 03:53:31;;;;;;;9.15;2.13;;;;;;;;;;5040703;28;20041;-61
2022/09/14 03:55:57;;;;;;;6.47;1.95;;;;;;;;;;5042316;28;20044;-61
2022/09/14 03:58:24;;;;;;;5.25;1.50;;;;;;;;;;5040847;28;20047;-61
2022/09/14 04:00:50;;;;;;;5.55;1.77;;;;;;;;;;5041613;28;20056;-61
2022/09/14 04:03:17;;;;;;;5.60;2.20;;;;;;;;;;5041801;28;20052;-61
2022/09/14 04:05:44;;;;;;;7.05;1.92;;;;;;;;;;5041587;28;20037;-61
2022/09/14 04:08:10;;;;;;;7.50;1.75;;;;;;;;;;5042195;28;20115;-61
2022/09/14 04:10:39;;;;;;;10.35;1.77;;;;;;;;;;5040606;28;20056;-61
2022/09/14 04:13:05;;;;;;;4.40;1.52;;;;;;;;;;5041662;28;20152;-62
2022/09/14 04:15:31;;;;;;;4.82;2.38;;;;;;;;;;5041043;28;20048;-61
2022/09/14 04:17:58;;;;;;;3.67;2.13;;;;;;;;;;5042089;28;20037;-61
2022/09/14 04:20:24;;;;;;;8.95;2.30;;;;;;;;;;5041757;28;20033;-61
2022/09/14 04:22:50;;;;;;;7.60;1.80;;;;;;;;;;5041034;28;20049;-61
2022/09/14 04:25:16;;;;;;;4.28;1.90;;;;;;;;;;5040489;28;20460;-61
2022/09/14 04:27:42;;;;;;;4.40;1.67;;;;;;;;;;5041027;28;20048;-61
2022/09/14 04:30:08;;;;;;;5.38;1.63;;;;;;;;;;5040942;28;20091;-62
2022/09/14 04:32:35;;;;;;;4.22;1.80;;;;;;;;;;5040287;28;20120;-62
2022/09/14 04:35:01;;;;;;;6.90;2.10;;;;;;;;;;5041631;28;20040;-61
2022/09/14 04:37:30;;;;;;;2.92;1.70;;;;;;;;;;5042135;28;20124;-61
2022/09/14 04:39:56;;;;;;;4.72;1.88;;;;;;;;;;5041070;28;20041;-61
2022/09/14 04:42:22;;;;;;;4.30;1.83;;;;;;;;;;5041209;28;20067;-61
2022/09/14 04:44:49;;;;;;;7.82;1.70;;;;;;;;;;5040373;28;20491;-61
2022/09/14 04:47:15;;;;;;;5.88;1.58;;;;;;;;;;5041410;28;20033;-61
2022/09/14 04:49:41;;;;;;;5.00;1.67;;;;;;;;;;5041095;28;20045;-61
2022/09/14 04:52:07;;;;;;;3.67;1.67;;;;;;;;;;5040539;28;20033;-61
2022/09/14 04:54:33;;;;;;;9.48;1.60;;;;;;;;;;5043031;28;20052;-62
2022/09/14 04:56:59;;;;;;;6.50;1.73;;;;;;;;;;5045058;28;20115;-61
2022/09/14 04:59:25;;;;;;;5.53;1.90;;;;;;;;;;5044192;28;20040;-62
2022/09/14 05:01:51;;;;;;;5.43;2.05;;;;;;;;;;5044695;28;20052;-62
2022/09/14 05:04:18;;;;;;;4.47;2.08;;;;;;;;;;5044714;28;20059;-61
2022/09/14 05:06:44;;;;;;;3.55;1.60;;;;;;;;;;5044302;28;20040;-61
2022/09/14 05:09:13;;;;;;;8.70;1.80;;;;;;;;;;5041812;28;20053;-62
2022/09/14 05:11:40;;;;;;;5.78;1.70;;;;;;;;;;5043119;28;20053;-61
2022/09/14 05:14:06;;;;;;;9.55;2.20;;;;;;;;;;5043482;28;20368;-61
2022/09/14 05:16:34;;;;;;;6.97;2.33;;;;;;;;;;5043749;28;20572;-62
2022/09/14 05:19:01;;;;;;;5.87;2.07;;;;;;;;;;5042860;28;20056;-61
2022/09/14 05:21:28;;;;;;;3.17;1.65;;;;;;;;;;5030978;28;20295;-61
2022/09/14 05:23:57;;;;;;;5.63;2.05;;;;;;;;;;5033717;28;20132;-61
2022/09/14 05:26:23;;;;;;;;;;;;;;;;;;5032846;28;20522;-61
2022/09/14 05:28:51;;;;;;;8.10;1.80;;;;;;;;;;5029662;28;19995;-62
2022/09/14 05:31:17;;;;;;;8.43;1.60;;;;;;;;;;5034293;28;20049;-61
2022/09/14 05:33:43;;;;;;;3.85;1.80;;;;;;;;;;5037465;28;20792;-61
2022/09/14 05:36:10;;;;;;;6.05;1.92;;;;;;;;;;5035643;28;20037;-62
2022/09/14 05:38:37;;;;;;;6.82;1.73;;;;;;;;;;5038714;28;20128;-61
2022/09/14 05:41:04;;;;;;;3.60;1.70;;;;;;;;;;5034353;28;20670;-61
2022/09/14 05:43:30;;;;;;;9.35;2.33;;;;;;;;;;5041058;28;20032;-61
2022/09/14 05:46:00;;;;;;;29.38;2.80;;;;;;;;;;5043665;28;20167;-61
2022/09/14 05:48:26;;;;;;;4.30;1.60;;;;;;;;;;5041609;28;20040;-61
2022/09/14 05:51:00;;;;;;;7.22;1.67;;;;;;;;;;5042401;28;21891;-61
2022/09/14 05:53:26;;;;;;;7.03;2.17;;;;;;;;;;5043364;28;21527;-61
2022/09/14 05:56:04;;;;;;;5.80;1.80;;;;;;;;;;5042529;28;20048;-60
2022/09/14 05:58:30;;;;;;;3.50;1.45;;;;;;;;;;5041943;28;20037;-62
2022/09/14 06:00:57;;;;;;;3.75;1.52;;;;;;;;;;5039649;28;20047;-61
2022/09/14 06:03:23;;;;;;;5.80;2.00;;;;;;;;;;5040809;28;20066;-61
2022/09/14 06:05:49;;;;;;;10.07;2.75;;;;;;;;;;5040464;28;20037;-61
2022/09/14 06:08:16;;;;;;;7.75;2.10;;;;;;;;;;5042235;28;20036;-61
2022/09/14 06:10:42;;;;;;;3.03;2.03;;;;;;;;;;5042826;28;20064;-61
2022/09/14 06:13:08;;;;;;;6.25;2.17;;;;;;;;;;5042703;28;20051;-61
2022/09/14 06:15:34;;;;;;;6.47;1.90;;;;;;;;;;5042986;28;20553;-61
2022/09/14 06:18:00;;;;;;;4.95;2.22;;;;;;;;;;5043396;28;20040;-61
2022/09/14 06:20:26;;;;;;;5.10;2.47;;;;;;;;;;5042362;28;20041;-61
2022/09/14 06:22:53;;;;;;;6.00;2.10;;;;;;;;;;5043031;28;20049;-61
2022/09/14 06:25:19;;;;;;;8.27;2.13;;;;;;;;;;5043290;28;20033;-61
2022/09/14 06:27:45;;;;;;;7.45;1.90;;;;;;;;;;5042740;28;20094;-61
2022/09/14 06:30:11;;;;;;;3.33;2.10;;;;;;;;;;5041751;28;20040;-61
2022/09/14 06:32:37;;;;;;;9.25;2.40;;;;;;;;;;5042569;28;20037;-61
2022/09/14 06:35:04;;;;;;;5.07;2.08;;;;;;;;;;5043114;28;20040;-61
2022/09/14 06:37:30;;;;;;;3.17;2.13;;;;;;;;;;5043345;28;20039;-61
2022/09/14 06:39:56;;;;;;;6.97;2.38;;;;;;;;;;5042928;28;20091;-61
2022/09/14 06:42:22;;;;;;;8.48;2.70;;;;;;;;;;5042322;28;20253;-61
2022/09/14 06:44:48;;;;;;;7.63;2.90;;;;;;;;;;5041665;28;20127;-61
2022/09/14 06:47:14;;;;;;;9.10;2.70;;;;;;;;;;5042633;28;20037;-61
2022/09/14 06:49:40;;;;;;;5.18;2.58;;;;;;;;;;5042336;28;20037;-61
2022/09/14 06:52:06;;;;;;;10.18;2.50;;;;;;;;;;5042679;28;20045;-61
2022/09/14 06:54:33;;;;;;;8.75;2.63;;;;;;;;;;5042332;28;20055;-61
2022/09/14 06:56:59;;;;;;;10.15;2.80;;;;;;;;;;5042722;28;20033;-61
2022/09/14 06:59:25;;;;;;;5.63;2.40;;;;;;;;;;5041990;28;20037;-61
2022/09/14 07:01:51;;;;;;;7.68;2.55;;;;;;;;;;5042062;28;20335;-58
2022/09/14 07:04:17;;;;;;;12.10;2.97;;;;;;;;;;5040759;28;20098;-59
2022/09/14 07:06:45;;;;;;;6.00;2.42;;;;;;;;;;5041808;28;20051;-59
2022/09/14 07:09:11;;;;;;;7.50;2.70;;;;;;;;;;5042468;28;20065;-59
2022/09/14 07:11:38;;;;;;;14.88;3.58;;;;;;;;;;5041955;28;20087;-59
2022/09/14 07:14:05;;;;;;;7.63;2.75;;;;;;;;;;5041651;28;20050;-59
2022/09/14 07:16:32;;;;;;;3.95;1.95;;;;;;;;;;5042233;28;20441;-59
2022/09/14 07:19:00;;;;;;;10.80;2.95;;;;;;;;;;5041565;28;20047;-60
2022/09/14 07:21:27;;;;;;;5.13;2.55;;;;;;;;;;5041958;28;20095;-59
2022/09/14 07:23:54;;;;;;;8.18;2.90;;;;;;;;;;5039979;28;20147;-59
2022/09/14 07:26:22;;;;;;;10.18;2.53;;;;;;;;;;5042352;28;20080;-59
2022/09/14 07:28:50;;;;;;;13.67;2.93;;;;;;;;;;5041227;28;20033;-59
2022/09/14 07:31:18;;;;;;;7.95;2.67;;;;;;;;;;5041151;28;20052;-59
2022/09/14 07:33:44;;;;;;;4.47;2.03;;;;;;;;;;5041620;28;20087;-60
2022/09/14 07:36:11;;;;;;;9.88;2.28;;;;;;;;;;5041679;28;20398;-59
2022/09/14 07:38:38;;;;;;;8.43;2.55;;;;;;;;;;5041604;28;20136;-59
2022/09/14 07:41:04;;;;;;;7.00;2.38;;;;;;;;;;5041621;28;20459;-59
2022/09/14 07:43:30;;;;;;;7.18;3.17;;;;;;;;;;5040648;28;20775;-59
2022/09/14 07:45:56;;;;;;;7.45;2.10;;;;;;;;;;5041738;28;20068;-59
2022/09/14 07:48:23;;;;;;;10.27;2.60;;;;;;;;;;5041387;28;20383;-59
2022/09/14 07:50:58;;;;;;;14.23;2.90;;;;;;;;;;5040141;28;20131;-59
2022/09/14 07:53:25;;;;;;;4.38;1.85;;;;;;;;;;5041564;28;20061;-59
2022/09/14 07:55:51;;;;;;;8.85;2.15;;;;;;;;;;5041359;28;20041;-59
2022/09/14 07:58:17;;;;;;;5.35;2.10;;;;;;;;;;5040851;28;20052;-59
2022/09/14 08:00:44;;;;;;;6.00;2.00;;;;;;;;;;5040942;28;20491;-60
2022/09/14 08:03:10;;;;;;;7.70;2.25;;;;;;;;;;5041350;28;20709;-59
2022/09/14 08:05:36;;;;;;;8.80;3.08;;;;;;;;;;5041648;28;20132;-60
2022/09/14 08:08:03;;;;;;;5.10;2.03;;;;;;;;;;5041226;28;20105;-59
2022/09/14 08:10:29;;;;;;;6.25;1.70;;;;;;;;;;5041490;28;20104;-59
2022/09/14 08:12:55;;;;;;;4.07;1.02;;;;;;;;;;5040464;28;20041;-60
2022/09/14 08:15:22;;;;;;;4.25;1.15;;;;;;;;;;5040103;28;20029;-59
2022/09/14 08:17:49;;;;;;;5.10;0.85;;;;;;;;;;5041193;28;20048;-60
2022/09/14 08:20:16;;;;;;;4.38;0.85;;;;;;;;;;5040855;28;20044;-59
2022/09/14 08:22:43;;;;;;;3.42;1.00;;;;;;;;;;5039905;28;20136;-59
2022/09/14 08:25:09;;;;;;;6.45;0.98;;;;;;;;;;5041266;28;20083;-59
2022/09/14 08:27:36;;;;;;;5.90;1.23;;;;;;;;;;5040478;28;20033;-60
2022/09/14 08:30:02;;;;;;;5.00;1.00;;;;;;;;;;5044350;28;20109;-59
2022/09/14 08:32:28;;;;;;;4.53;1.35;;;;;;;;;;5044684;28;20040;-59
2022/09/14 08:34:54;;;;;;;6.18;1.05;;;;;;;;;;5045068;28;20041;-59
2022/09/14 08:37:20;;;;;;;3.35;0.80;;;;;;;;;;5043808;28;20048;-59
2022/09/14 08:39:47;;;;;;;8.55;0.77;;;;;;;;;;5044806;28;20069;-59
2022/09/14 08:42:15;;;;;;;2.70;0.60;;;;;;;;;;5044584;28;20049;-60
2022/09/14 08:44:43;;;;;;;3.53;0.98;;;;;;;;;;5043051;28;20040;-60
2022/09/14 08:47:09;;;;;;;3.67;0.50;;;;;;;;;;5044783;28;20041;-60
2022/09/14 08:49:40;;;;;;;6.78;0.90;;;;;;;;;;5044853;28;20495;-60
2022/09/14 08:52:12;;;;;;;7.53;0.85;;;;;;;;;;5044996;28;20112;-59
2022/09/14 08:54:38;;;;;;;4.22;0.40;;;;;;;;;;5045046;28;20116;-60
2022/09/14 08:57:09;;;;;;;4.68;0.80;;;;;;;;;;5044835;28;20455;-60
2022/09/14 08:59:35;;;;;;;9.77;0.40;;;;;;;;;;5042512;28;20047;-60
2022/09/14 09:02:13;;;;;;;7.47;0.50;;;;;;;;;;5045097;28;20051;-59
2022/09/14 09:04:39;;;;;;;;;;;;;;;;;;5044740;28;20036;-60
2022/09/14 09:07:21;;;;;;;5.45;0.32;;;;;;;;;;5044955;28;19927;-59
2022/09/14 09:09:49;;;;;;;4.78;0.30;;;;;;;;;;5044159;28;20056;-59
2022/09/14 09:12:18;;;;;;;3.30;0.30;;;;;;;;;;5044476;28;20084;-59
2022/09/14 09:14:48;;;;;;;6.15;0.43;;;;;;;;;;5039832;28;20044;-59
2022/09/14 09:17:17;;;;;;;4.15;0.38;;;;;;;;;;5044297;28;20053;-60
2022/09/14 09:19:50;;;;;;;3.47;0.43;;;;;;;;;;5044175;28;20041;-60
2022/09/14 09:22:21;;;;;;;1.33;0.32;;;;;;;;;;5044099;28;20044;-59
2022/09/14 09:24:50;;;;;;;7.82;0.40;;;;;;;;;;5043588;28;20053;-60
2022/09/14 09:27:16;;;;;;;7.15;0.73;;;;;;;;;;5044023;28;20037;-60
2022/09/14 09:29:42;;;;;;;7.43;0.63;;;;;;;;;;5043182;28;20048;-60
2022/09/14 09:32:20;;;;;;;4.20;0.50;;;;;;;;;;5043471;28;20514;-59
2022/09/14 09:34:46;;;;;;;6.25;0.40;;;;;;;;;;5041686;28;20044;-60
2022/09/14 09:37:19;;;;;;;4.70;0.80;;;;;;;;;;5044270;28;20478;-60
2022/09/14 09:39:45;;;;;;;4.70;0.55;;;;;;;;;;5043226;28;20514;-59
2022/09/14 09:42:22;;;;;;;3.63;0.30;;;;;;;;;;5042884;28;20033;-59
2022/09/14 09:44:55;;;;;;;4.45;0.88;;;;;;;;;;5043625;28;20102;-60
2022/09/14 09:47:26;;;;;;;3.95;0.40;;;;;;;;;;5044039;28;20080;-59
2022/09/14 09:49:59;;;;;;;2.80;0.80;;;;;;;;;;5043597;28;20161;-60
2022/09/14 09:52:26;;;;;;;8.35;0.40;;;;;;;;;;5040326;28;20045;-59
2022/09/14 09:54:54;;;;;;;6.43;0.30;;;;;;;;;;5043161;28;20048;-59
2022/09/14 09:57:23;;;;;;;2.78;0.35;;;;;;;;;;5043381;28;20045;-60
2022/09/14 09:59:49;;;;;;;3.92;0.57;;;;;;;;;;5043592;28;20041;-60
2022/09/14 10:02:17;;;;;;;9.10;0.55;;;;;;;;;;5043660;28;20041;-60
2022/09/14 10:04:57;;;;;;;5.05;0.38;;;;;;;;;;5042992;28;20136;-60
2022/09/14 10:07:23;;;;;;;3.30;0.35;;;;;;;;;;5043081;28;20421;-59
2022/09/14 10:09:56;;;;;;;7.68;0.50;;;;;;;;;;5043048;28;20454;-59
2022/09/14 10:12:23;;;;;;;9.80;0.55;;;;;;;;;;5042800;28;20586;-60
2022/09/14 10:14:50;;;;;;;8.02;0.50;;;;;;;;;;5043134;28;20049;-60
2022/09/14 10:17:17;;;;;;;5.15;1.00;;;;;;;;;;5043520;28;20088;-59
2022/09/14 10:19:51;;;;;;;6.20;0.50;;;;;;;;;;5039266;28;20041;-60
2022/09/14 10:22:18;;;;;;;4.68;0.40;;;;;;;;;;5043331;28;20106;-60
2022/09/14 10:24:53;;;;;;;8.50;0.60;;;;;;;;;;5042535;28;20043;-60
2022/09/14 10:27:31;;;;;;;5.35;0.50;;;;;;;;;;5042348;28;20167;-60
2022/09/14 10:29:59;;;;;;;2.67;0.40;;;;;;;;;;5042719;28;20212;-60
2022/09/14 10:32:26;;;;;;;4.03;0.40;;;;;;;;;;5041439;28;20037;-59
2022/09/14 10:34:53;;;;;;;9.23;0.40;;;;;;;;;;5042848;28;20053;-60
2022/09/14 10:37:30;;;;;;;1.98;0.40;;;;;;;;;;5042926;28;20079;-60
2022/09/14 10:40:06;;;;;;;5.43;0.30;;;;;;;;;;5042734;28;20144;-60
2022/09/14 10:42:37;;;;;;;7.43;0.50;;;;;;;;;;5038984;28;20149;-60
2022/09/14 10:45:07;;;;;;;3.70;0.32;;;;;;;;;;5040687;28;20041;-60
2022/09/14 10:47:41;;;;;;;5.35;0.70;;;;;;;;;;5043145;28;20483;-60
2022/09/14 10:50:18;;;;;;;3.88;0.40;;;;;;;;;;5042278;28;20045;-60
2022/09/14 10:52:58;;;;;;;5.97;0.50;;;;;;;;;;5042538;28;20041;-60
2022/09/14 10:55:43;;;;;;;2.88;0.50;;;;;;;;;;5042587;28;20059;-60
2022/09/14 10:58:12;;;;;;;7.20;0.65;;;;;;;;;;5041902;28;20044;-60
2022/09/14 11:00:49;;;;;;;6.53;0.65;;;;;;;;;;5039160;28;20043;-60
2022/09/14 11:03:22;;;;;;;4.13;0.57;;;;;;;;;;5041645;28;20256;-59
2022/09/14 11:05:55;;;;;;;9.20;0.60;;;;;;;;;;5040315;28;20049;-59
2022/09/14 11:08:21;;;;;;;2.65;0.38;;;;;;;;;;5039406;28;20035;-59
2022/09/14 11:11:03;;;;;;;9.07;0.95;;;;;;;;;;5041286;28;20083;-59
2022/09/14 11:13:34;;;;;;;6.15;0.80;;;;;;;;;;5040146;28;20051;-59
2022/09/14 11:16:03;;;;;;;5.63;0.70;;;;;;;;;;5031677;28;20049;-59
2022/09/14 11:18:38;;;;;;;5.82;0.50;;;;;;;;;;5030286;28;20498;-59
2022/09/14 11:21:04;;;;;;;2.42;0.50;;;;;;;;;;5041899;28;20066;-59
2022/09/14 11:23:30;;;;;;;2.17;0.75;;;;;;;;;;5039153;28;20483;-59
2022/09/14 11:26:00;;;;;;;5.32;0.57;;;;;;;;;;5039244;28;20494;-59
2022/09/14 11:28:28;;;;;;;6.68;0.50;;;;;;;;;;5036724;28;20029;-61
2022/09/14 11:30:54;;;;;;;;;;;;;;;;;;5031473;28;20767;-60
2022/09/14 11:33:21;;;;;;;2.90;0.40;;;;;;;;;;5037291;28;19917;-60
2022/09/14 11:35:51;;;;;;;1.98;0.40;;;;;;;;;;5039295;28;20056;-60
2022/09/14 11:38:19;;;;;;;6.38;0.70;;;;;;;;;;5039131;28;20048;-60
2022/09/14 11:40:54;;;;;;;2.85;0.57;;;;;;;;;;5034767;28;20053;-60
2022/09/14 11:43:24;;;;;;;4.72;0.50;;;;;;;;;;5038596;28;20114;-60
2022/09/14 11:46:06;;;;;;;8.30;1.10;;;;;;;;;;5035984;28;20040;-60
2022/09/14 11:48:38;;;;;;;3.13;0.50;;;;;;;;;;5038426;28;20060;-61
2022/09/14 11:51:08;;;;;;;3.90;0.45;;;;;;;;;;5037161;28;20041;-61
2022/09/14 11:53:34;;;;;;;6.65;0.40;;;;;;;;;;5037044;28;20040;-61
2022/09/14 11:56:01;;;;;;;3.67;0.43;;;;;;;;;;5037683;28;20120;-62
2022/09/14 11:58:28;;;;;;;3.72;0.38;;;;;;;;;;5035241;28;21261;-61
2022/09/14 12:01:01;;;;;;;1.63;0.35;;;;;;;;;;5034148;28;20098;-67
2022/09/14 12:03:51;;;;;;;5.32;0.40;;;;;;;;;;5028365;28;20044;-61
2022/09/14 12:06:40;;;;;;;5.95;0.60;;;;;;;;;;5033474;28;20132;-62
2022/09/14 12:09:15;;;;;;;5.00;0.60;;;;;;;;;;5038102;28;20044;-62
2022/09/14 12:11:43;;;;;;;5.25;0.70;;;;;;;;;;5027495;28;20071;-62
2022/09/14 12:14:22;;;;;;;6.13;0.50;;;;;;;;;;5023564;28;20807;-62
2022/09/14 12:17:07;;;;;;;4.15;0.40;;;;;;;;;;5021242;28;20557;-62
2022/09/14 12:19:33;;;;;;;7.75;0.40;;;;;;;;;;5028478;28;20076;-62
2022/09/14 12:22:20;;;;;;;5.13;0.40;;;;;;;;;;5038240;28;20079;-61
2022/09/14 12:25:08;;;;;;;4.32;0.50;;;;;;;;;;5032092;28;20046;-62
2022/09/14 12:27:36;;;;;;;2.78;0.68;;;;;;;;;;5032186;28;20065;-62
2022/09/14 12:30:22;;;;;;;3.17;0.20;;;;;;;;;;5026645;28;20057;-62
2022/09/14 12:32:49;;;;;;;3.83;0.47;;;;;;;;;;5024288;28;20076;-62
2022/09/14 12:35:33;;;;;;;1.30;0.30;;;;;;;;;;5038616;28;20052;-62
2022/09/14 12:38:21;;;;;;;7.97;0.70;;;;;;;;;;5038607;28;20041;-62
2022/09/14 12:40:47;;;;;;;3.57;0.50;;;;;;;;;;5029277;28;20037;-62
2022/09/14 12:43:32;;;;;;;2.00;0.30;;;;;;;;;;5037186;28;20501;-63
2022/09/14 12:46:03;;;;;;;2.45;0.32;;;;;;;;;;5039142;28;20049;-62
2022/09/14 12:48:44;;;;;;;8.98;4.22;;;;;;;;;;5035470;28;20060;-62
2022/09/14 12:51:14;;;;;;;2.67;0.38;;;;;;;;;;5037916;28;20041;-62
2022/09/14 12:53:42;;;;;;;2.33;0.40;;;;;;;;;;5037533;28;20045;-62
2022/09/14 12:56:19;;;;;;;4.80;0.73;;;;;;;;;;5037872;28;20052;-63
2022/09/14 12:58:52;;;;;;;3.42;0.32;;;;;;;;;;5033443;28;20049;-63
2022/09/14 13:01:19;;;;;;;5.57;0.60;;;;;;;;;;5034351;28;20045;-62
2022/09/14 13:03:47;;;;;;;4.20;1.10;;;;;;;;;;5036123;28;20506;-63
2022/09/14 13:06:13;;;;;;;4.82;0.45;;;;;;;;;;5037523;28;20033;-62
2022/09/14 13:08:43;;;;;;;1.42;0.35;;;;;;;;;;5033278;28;20044;-63
2022/09/14 13:11:09;;;;;;;3.33;0.40;;;;;;;;;;5038150;28;20062;-63
2022/09/14 13:13:36;;;;;;;6.20;0.50;;;;;;;;;;5037289;28;20103;-62
2022/09/14 13:16:04;;;;;;;5.63;0.57;;;;;;;;;;5040621;28;20124;-63
2022/09/14 13:18:32;;;;;;;7.05;0.52;;;;;;;;;;5040096;28;20529;-62
2022/09/14 13:21:00;;;;;;;4.68;0.40;;;;;;;;;;5039982;28;20044;-63
2022/09/14 13:23:30;;;;;;;1.48;0.40;;;;;;;;;;5041673;28;20037;-63
2022/09/14 13:25:56;;;;;;;2.17;0.50;;;;;;;;;;5040301;28;20132;-62
2022/09/14 13:28:24;;;;;;;7.45;0.70;;;;;;;;;;5036154;28;20120;-63
2022/09/14 13:30:58;;;;;;;4.53;0.50;;;;;;;;;;5034334;28;20084;-63
2022/09/14 13:33:24;;;;;;;3.78;0.73;;;;;;;;;;5031860;28;20040;-62
2022/09/14 13:35:52;;;;;;;2.60;0.57;;;;;;;;;;5031893;28;20055;-62
2022/09/14 13:38:20;;;;;;;4.82;0.60;;;;;;;;;;5030283;28;20505;-63
2022/09/14 13:40:48;;;;;;;4.30;0.68;;;;;;;;;;5039870;28;20041;-63
2022/09/14 13:43:16;;;;;;;8.48;0.50;;;;;;;;;;5026035;28;20053;-63
2022/09/14 13:45:43;;;;;;;2.97;0.70;;;;;;;;;;5032493;28;20049;-63
2022/09/14 13:48:13;;;;;;;7.22;0.65;;;;;;;;;;5031456;28;20057;-63
2022/09/14 13:50:39;;;;;;;1.92;0.47;;;;;;;;;;5036236;28;20041;-63
2022/09/14 13:53:25;;;;;;;1.98;0.50;;;;;;;;;;5028970;28;20132;-63
2022/09/14 13:55:52;;;;;;;4.72;0.40;;;;;;;;;;5034119;28;20574;-62
2022/09/14 13:58:22;;;;;;;2.95;0.50;;;;;;;;;;5039524;28;20045;-63
2022/09/14 14:00:49;;;;;;;4.53;0.40;;;;;;;;;;5026012;28;20497;-63
2022/09/14 14:03:26;;;;;;;3.17;0.50;;;;;;;;;;5025484;28;20029;-63
2022/09/14 14:05:52;;;;;;;3.40;0.30;;;;;;;;;;5029873;28;20300;-63
2022/09/14 14:08:26;;;;;;;2.20;0.40;;;;;;;;;;5040688;28;20048;-63
2022/09/14 14:10:53;;;;;;;3.95;0.65;;;;;;;;;;5028476;28;20156;-63
2022/09/14 14:13:24;;;;;;;2.85;0.35;;;;;;;;;;5024205;28;20202;-63
2022/09/14 14:15:52;;;;;;;2.88;0.65;;;;;;;;;;5030753;28;20102;-63
2022/09/14 14:18:39;;;;;;;5.60;0.50;;;;;;;;;;5029551;28;20037;-63
2022/09/14 14:21:13;;;;;;;8.15;0.60;;;;;;;;;;5028078;28;20047;-63
2022/09/14 14:23:41;;;;;;;2.33;0.50;;;;;;;;;;5023879;28;20115;-63
2022/09/14 14:26:09;;;;;;;3.35;0.60;;;;;;;;;;5033014;28;20095;-63
2022/09/14 14:28:36;;;;;;;6.95;0.55;;;;;;;;;;5031689;28;20056;-62
2022/09/14 14:31:04;;;;;;;5.30;0.50;;;;;;;;;;5030204;28;20091;-63
2022/09/14 14:33:30;;;;;;;7.13;0.65;;;;;;;;;;5030284;28;20040;-63
2022/09/14 14:35:56;;;;;;;5.22;0.50;;;;;;;;;;5036273;28;20871;-63
2022/09/14 14:38:23;;;;;;;7.35;0.50;;;;;;;;;;5042898;28;20044;-62
2022/09/14 14:40:52;;;;;;;4.57;0.60;;;;;;;;;;5040821;28;20055;-63
2022/09/14 14:43:20;;;;;;;3.97;0.40;;;;;;;;;;5041782;28;20045;-63
2022/09/14 14:45:47;;;;;;;3.72;0.57;;;;;;;;;;5042452;28;20037;-63
2022/09/14 14:48:13;;;;;;;5.40;0.75;;;;;;;;;;5042230;28;20506;-63
2022/09/14 14:50:39;;;;;;;3.22;0.73;;;;;;;;;;5042066;28;20112;-63
2022/09/14 14:53:06;;;;;;;3.70;0.60;;;;;;;;;;5042078;28;20036;-63
2022/09/14 14:55:34;;;;;;;5.88;0.60;;;;;;;;;;5041672;28;20044;-63